createdAt,value
2019-04-05T00:00:35.601Z,6.50
2019-04-05T00:03:05.316Z,6.52
2019-04-05T00:05:34.954Z,6.47
2019-04-05T00:08:04.722Z,6.34
2019-04-05T00:10:34.523Z,6.32
2019-04-05T00:13:04.327Z,6.29
2019-04-05T00:15:34.001Z,6.25
2019-04-05T00:18:03.559Z,6.18
2019-04-05T00:20:33.167Z,6.23
2019-04-05T00:23:02.750Z,6.20
2019-04-05T00:25:33.377Z,6.07
2019-04-05T00:28:02.956Z,5.99
2019-04-05T00:30:32.554Z,5.93
2019-04-05T00:33:02.120Z,5.83
2019-04-05T00:35:31.666Z,5.84
2019-04-05T00:38:01.300Z,5.82
2019-04-05T00:40:30.876Z,5.84
2019-04-05T00:43:00.435Z,5.82
2019-04-05T00:45:30.065Z,5.79
2019-04-05T00:47:59.638Z,5.84
2019-04-05T00:50:29.435Z,5.84
2019-04-05T00:52:59.009Z,5.77
2019-04-05T00:55:28.637Z,5.77
2019-04-05T00:57:58.447Z,5.98
2019-04-05T01:00:28.006Z,5.99
2019-04-05T01:02:57.738Z,6.25
2019-04-05T01:05:27.426Z,6.25
2019-04-05T01:07:57.090Z,6.24
2019-04-05T01:10:26.691Z,6.32
2019-04-05T01:12:56.537Z,6.34
2019-04-05T01:15:26.181Z,6.50
2019-04-05T01:17:55.870Z,6.64
2019-04-05T01:20:28.376Z,6.73
2019-04-05T01:23:00.355Z,6.68
2019-04-05T01:25:30.439Z,6.79
2019-04-05T01:28:00.541Z,6.98
2019-04-05T01:30:30.225Z,6.73
2019-04-05T01:32:59.801Z,6.84
2019-04-05T01:35:29.368Z,6.95
2019-04-05T01:37:59.630Z,6.91
2019-04-05T01:40:32.671Z,6.84
2019-04-05T01:43:02.638Z,6.69
2019-04-05T01:45:32.312Z,6.68
2019-04-05T01:48:02.030Z,6.61
2019-04-05T01:50:32.229Z,6.50
2019-04-05T01:53:02.118Z,6.55
2019-04-05T01:55:31.711Z,6.63
2019-04-05T01:58:01.272Z,6.53
2019-04-05T02:00:30.859Z,6.43
2019-04-05T02:03:00.635Z,6.35
2019-04-05T02:05:30.297Z,6.24
2019-04-05T02:08:00.126Z,6.15
2019-04-05T02:10:30.089Z,6.24
2019-04-05T02:13:00.125Z,6.27
2019-04-05T02:15:31.790Z,6.41
2019-04-05T02:18:01.398Z,6.51
2019-04-05T02:23:11.309Z,6.71
2019-04-05T02:25:40.922Z,6.71
2019-04-05T02:28:10.548Z,6.83
2019-04-05T02:30:40.278Z,6.88
2019-04-05T02:33:09.963Z,6.86
2019-04-05T02:35:39.509Z,6.94
2019-04-05T02:38:09.127Z,6.85
2019-04-05T02:40:40.925Z,6.64
2019-04-05T02:43:14.193Z,6.69
2019-04-05T02:45:45.604Z,6.73
2019-04-05T02:48:16.218Z,6.74
2019-04-05T02:50:49.349Z,6.72
2019-04-05T02:53:20.499Z,6.82
2019-04-05T02:55:50.340Z,6.80
2019-04-05T02:58:22.049Z,6.81
2019-04-05T03:00:52.389Z,6.82
2019-04-05T03:03:22.670Z,6.80
2019-04-05T03:05:52.950Z,6.86
2019-04-05T03:08:22.670Z,6.92
2019-04-05T03:11:14.183Z,6.90
2019-04-05T03:13:54.551Z,7.00
2019-04-05T03:16:40.438Z,7.00
2019-04-05T03:19:07.168Z,7.00
2019-04-05T03:21:39.727Z,6.85
2019-04-05T03:24:11.900Z,6.76
2019-04-05T03:26:45.019Z,6.80
2019-04-05T03:29:14.956Z,6.87
2019-04-05T03:31:45.166Z,7.00
2019-04-05T03:34:15.007Z,6.89
2019-04-05T03:36:44.798Z,6.90
2019-04-05T03:39:14.676Z,6.90
2019-04-05T03:41:44.504Z,6.79
2019-04-05T03:44:14.507Z,6.92
2019-04-05T03:46:56.387Z,6.97
2019-04-05T03:49:15.751Z,6.74
2019-04-05T03:51:46.181Z,6.74
2019-04-05T03:54:16.009Z,6.32
2019-04-05T03:56:45.670Z,6.03
2019-04-05T03:59:15.348Z,6.06
2019-04-05T04:01:45.059Z,6.18
2019-04-05T04:04:14.877Z,5.82
2019-04-05T04:06:44.728Z,5.97
2019-04-05T04:09:14.496Z,5.73
2019-04-05T04:11:44.204Z,5.62
2019-04-05T04:14:14.343Z,5.45
2019-04-05T04:16:44.302Z,5.51
2019-04-05T04:19:14.612Z,5.33
2019-04-05T04:22:23.667Z,5.43
2019-04-05T04:24:53.500Z,5.40
2019-04-05T04:27:24.218Z,5.46
2019-04-05T04:29:54.449Z,5.66
2019-04-05T04:32:24.984Z,6.07
2019-04-05T04:34:55.595Z,5.74
2019-04-05T04:37:26.060Z,5.75
2019-04-05T04:39:55.875Z,6.00
2019-04-05T04:42:26.656Z,6.21
2019-04-05T04:44:56.376Z,6.27
2019-04-05T04:47:27.506Z,6.03
2019-04-05T04:49:59.153Z,6.15
2019-04-05T04:52:31.414Z,6.57
2019-04-05T04:55:01.408Z,6.67
2019-04-05T04:57:31.717Z,6.85
2019-04-05T05:00:01.456Z,7.32
2019-04-05T05:02:31.485Z,7.56
2019-04-05T05:05:01.297Z,7.27
2019-04-05T05:07:31.457Z,7.61
2019-04-05T05:10:03.307Z,7.95
2019-04-05T05:12:32.778Z,8.15
2019-04-05T05:15:02.548Z,8.21
2019-04-05T05:17:38.461Z,7.94
2019-04-05T05:20:05.426Z,8.12
2019-04-05T05:22:35.224Z,8.30
2019-04-05T05:25:04.997Z,8.43
2019-04-05T05:27:34.982Z,8.34
2019-04-05T05:30:05.047Z,8.41
2019-04-05T05:32:34.979Z,7.73
2019-04-05T05:35:05.176Z,7.94
2019-04-05T05:37:35.377Z,8.20
2019-04-05T05:40:05.864Z,8.29
2019-04-05T05:42:35.788Z,8.59
2019-04-05T05:45:05.944Z,8.83
2019-04-05T05:47:35.676Z,8.17
2019-04-05T05:50:05.894Z,8.37
2019-04-05T05:52:36.575Z,8.24
2019-04-05T05:55:06.516Z,8.61
2019-04-05T05:57:36.153Z,8.54
2019-04-05T06:00:07.539Z,9.04
2019-04-05T06:02:38.726Z,8.72
2019-04-05T06:05:08.726Z,8.88
2019-04-05T06:07:38.367Z,9.13
2019-04-05T06:10:09.200Z,8.97
2019-04-05T06:12:38.885Z,9.44
2019-04-05T06:15:08.808Z,9.66
2019-04-05T06:17:38.510Z,8.97
2019-04-05T06:20:08.730Z,9.52
2019-04-05T06:22:38.391Z,9.09
2019-04-05T06:25:08.492Z,9.65
2019-04-05T06:27:38.069Z,9.77
2019-04-05T06:30:08.222Z,9.74
2019-04-05T06:32:37.877Z,9.29
2019-04-05T06:35:07.620Z,9.21
2019-04-05T06:37:37.233Z,9.17
2019-04-05T06:40:07.276Z,9.04
2019-04-05T06:42:36.931Z,9.59
2019-04-05T06:45:06.840Z,9.81
2019-04-05T06:47:36.453Z,9.59
2019-04-05T06:50:07.255Z,9.51
2019-04-05T06:52:36.899Z,10.05
2019-04-05T06:55:06.815Z,10.34
2019-04-05T06:57:36.467Z,10.02
2019-04-05T07:00:06.384Z,9.85
2019-04-05T07:02:35.982Z,9.86
2019-04-05T07:05:06.021Z,9.57
2019-04-05T07:07:35.670Z,9.67
2019-04-05T07:10:05.430Z,10.08
2019-04-05T07:12:35.139Z,10.64
2019-04-05T07:15:05.167Z,10.80
2019-04-05T07:17:34.828Z,10.61
2019-04-05T07:20:04.740Z,10.39
2019-04-05T07:22:39.134Z,11.08
2019-04-05T07:25:06.036Z,10.42
2019-04-05T07:27:35.662Z,10.62
2019-04-05T07:30:05.724Z,10.75
2019-04-05T07:32:35.315Z,10.91
2019-04-05T07:35:04.885Z,11.29
2019-04-05T07:37:34.614Z,10.72
2019-04-05T07:40:04.450Z,10.74
2019-04-05T07:42:34.063Z,10.81
2019-04-05T07:45:03.803Z,11.09
2019-04-05T07:47:33.436Z,11.57
2019-04-05T07:50:03.209Z,11.18
2019-04-05T07:52:32.835Z,11.80
2019-04-05T07:55:02.490Z,11.42
2019-04-05T07:57:32.096Z,11.25
2019-04-05T08:00:01.698Z,11.72
2019-04-05T08:02:31.309Z,11.63
2019-04-05T08:05:00.883Z,11.76
2019-04-05T08:07:33.744Z,12.73
2019-04-05T08:10:03.686Z,12.67
2019-04-05T08:12:33.363Z,12.37
2019-04-05T08:15:03.251Z,12.02
2019-04-05T08:17:37.714Z,12.45
2019-04-05T08:20:07.852Z,12.48
2019-04-05T08:22:37.453Z,12.91
2019-04-05T08:25:07.349Z,12.76
2019-04-05T08:27:36.992Z,13.10
2019-04-05T08:30:07.867Z,12.82
2019-04-05T08:32:37.553Z,12.92
2019-04-05T08:35:07.320Z,12.76
2019-04-05T08:37:36.878Z,12.87
2019-04-05T08:40:06.981Z,12.70
2019-04-05T08:42:36.573Z,12.46
2019-04-05T08:45:07.618Z,12.50
2019-04-05T08:47:37.207Z,13.00
2019-04-05T08:50:07.109Z,12.80
2019-04-05T08:52:36.728Z,12.46
2019-04-05T08:55:06.557Z,13.06
2019-04-05T08:57:36.126Z,12.93
2019-04-05T09:00:06.435Z,12.69
2019-04-05T09:02:36.050Z,13.00
2019-04-05T09:05:05.980Z,13.14
2019-04-05T09:07:35.593Z,13.52
2019-04-05T09:10:05.681Z,13.38
2019-04-05T09:12:35.312Z,13.60
2019-04-05T09:15:05.433Z,13.79
2019-04-05T09:17:35.008Z,13.58
2019-04-05T09:20:04.857Z,13.70
2019-04-05T09:22:34.556Z,14.43
2019-04-05T09:25:04.595Z,14.12
2019-04-05T09:27:34.198Z,14.25
2019-04-05T09:30:03.983Z,14.45
2019-04-05T09:32:36.447Z,14.31
2019-04-05T09:35:05.631Z,14.55
2019-04-05T09:37:35.310Z,14.97
2019-04-05T09:40:05.487Z,14.59
2019-04-05T09:42:35.068Z,15.17
2019-04-05T09:45:05.014Z,15.22
2019-04-05T09:47:34.581Z,14.86
2019-04-05T09:50:04.359Z,15.14
2019-04-05T09:52:34.020Z,14.80
2019-04-05T09:55:03.724Z,15.06
2019-04-05T09:57:33.378Z,14.72
2019-04-05T10:00:04.267Z,14.64
2019-04-05T10:02:33.835Z,14.73
2019-04-05T10:05:03.469Z,14.45
2019-04-05T10:07:33.089Z,14.16
2019-04-05T10:10:02.667Z,14.76
2019-04-05T10:12:32.260Z,14.83
2019-04-05T10:15:01.846Z,14.21
2019-04-05T10:17:31.575Z,14.41
2019-04-05T10:20:01.184Z,14.23
2019-04-05T10:22:30.738Z,15.34
2019-04-05T10:25:00.375Z,15.73
2019-04-05T10:27:30.003Z,15.83
2019-04-05T10:29:59.728Z,15.73
2019-04-05T10:32:29.408Z,15.27
2019-04-05T10:34:59.038Z,15.35
2019-04-05T10:37:28.646Z,15.53
2019-04-05T10:39:58.254Z,15.76
2019-04-05T10:42:32.756Z,15.69
2019-04-05T10:45:03.476Z,16.08
2019-04-05T10:47:33.062Z,15.25
2019-04-05T10:50:03.789Z,15.81
2019-04-05T10:52:33.430Z,16.03
2019-04-05T10:55:03.048Z,16.05
2019-04-05T10:57:32.699Z,15.89
2019-04-05T11:00:02.344Z,15.81
2019-04-05T11:02:31.944Z,15.25
2019-04-05T11:05:01.526Z,15.62
2019-04-05T11:07:31.201Z,15.90
2019-04-05T11:10:00.826Z,15.32
2019-04-05T11:12:30.437Z,15.96
2019-04-05T11:15:00.102Z,15.76
2019-04-05T11:17:29.708Z,15.60
2019-04-05T11:19:59.332Z,15.61
2019-04-05T11:22:28.959Z,15.80
2019-04-05T11:24:58.598Z,15.69
2019-04-05T11:27:28.277Z,15.68
2019-04-05T11:29:58.115Z,15.39
2019-04-05T11:32:27.817Z,15.70
2019-04-05T11:34:57.493Z,15.77
2019-04-05T11:37:28.755Z,15.40
2019-04-05T11:39:58.845Z,15.57
2019-04-05T11:42:29.566Z,15.85
2019-04-05T11:45:00.970Z,16.02
2019-04-05T11:47:31.959Z,16.65
2019-04-05T11:50:02.747Z,17.11
2019-04-05T11:52:32.362Z,16.83
2019-04-05T11:55:04.546Z,16.93
2019-04-05T11:57:33.370Z,17.08
2019-04-05T12:00:03.108Z,16.87
2019-04-05T12:02:40.053Z,16.50
2019-04-05T12:05:10.681Z,16.02
2019-04-05T12:07:40.352Z,15.80
2019-04-05T12:10:10.663Z,15.80
2019-04-05T12:12:40.300Z,15.64
2019-04-05T12:15:10.104Z,15.78
2019-04-05T12:17:40.374Z,15.85
2019-04-05T12:20:10.707Z,15.93
2019-04-05T12:22:40.465Z,15.91
2019-04-05T12:25:10.339Z,16.38
2019-04-05T12:27:40.135Z,16.26
2019-04-05T12:30:11.491Z,16.33
2019-04-05T12:32:41.770Z,16.21
2019-04-05T12:35:11.604Z,16.02
2019-04-05T12:37:50.311Z,16.06
2019-04-05T12:40:14.832Z,16.69
2019-04-05T12:42:44.333Z,16.44
2019-04-05T12:45:15.456Z,16.37
2019-04-05T12:47:46.113Z,16.79
2019-04-05T12:50:16.608Z,17.08
2019-04-05T12:52:46.282Z,17.35
2019-04-05T12:55:16.197Z,17.59
2019-04-05T12:57:48.293Z,17.64
2019-04-05T13:00:18.093Z,17.70
2019-04-05T13:02:50.242Z,17.15
2019-04-05T13:05:21.273Z,17.12
2019-04-05T13:07:50.693Z,16.90
2019-04-05T13:10:25.145Z,16.92
2019-04-05T13:12:56.611Z,16.69
2019-04-05T13:15:24.681Z,16.65
2019-04-05T13:17:54.351Z,16.92
2019-04-05T13:20:24.093Z,17.02
2019-04-05T13:22:53.707Z,16.97
2019-04-05T13:25:23.321Z,16.60
2019-04-05T13:27:52.926Z,16.92
2019-04-05T13:30:22.665Z,16.98
2019-04-05T13:32:53.436Z,16.76
2019-04-05T13:35:23.210Z,17.00
2019-04-05T13:37:52.860Z,17.16
2019-04-05T13:40:22.495Z,17.22
2019-04-05T13:42:52.155Z,17.21
2019-04-05T13:45:21.758Z,16.92
2019-04-05T13:47:51.365Z,17.02
2019-04-05T13:50:21.102Z,17.35
2019-04-05T13:52:50.728Z,17.02
2019-04-05T13:55:20.408Z,16.97
2019-04-05T13:57:50.051Z,17.11
2019-04-05T14:00:20.358Z,16.81
2019-04-05T14:02:50.817Z,16.88
2019-04-05T14:05:22.301Z,16.77
2019-04-05T14:07:54.552Z,16.67
2019-04-05T14:10:23.683Z,16.65
2019-04-05T14:12:53.327Z,17.08
2019-04-05T14:15:23.089Z,16.83
2019-04-05T14:17:52.700Z,17.01
2019-04-05T14:20:24.470Z,17.37
2019-04-05T14:22:53.824Z,16.96
2019-04-05T14:25:25.622Z,16.87
2019-04-05T14:27:54.812Z,17.07
2019-04-05T14:30:24.432Z,17.07
2019-04-05T14:32:55.718Z,17.01
2019-04-05T14:35:25.640Z,17.02
2019-04-05T14:37:55.285Z,17.01
2019-04-05T14:40:28.398Z,17.08
2019-04-05T14:42:57.724Z,17.02
2019-04-05T14:45:27.301Z,17.14
2019-04-05T14:47:58.446Z,17.28
2019-04-05T14:50:28.951Z,17.58
2019-04-05T14:53:00.745Z,17.40
2019-04-05T14:55:30.543Z,17.44
2019-04-05T14:58:00.252Z,17.26
2019-04-05T15:00:29.939Z,17.29
2019-04-05T15:02:59.582Z,17.25
2019-04-05T15:05:29.209Z,17.23
2019-04-05T15:07:58.793Z,17.10
2019-04-05T15:10:28.491Z,16.89
2019-04-05T15:13:00.239Z,17.01
2019-04-05T15:15:29.756Z,16.95
2019-04-05T15:17:59.325Z,16.99
2019-04-05T15:20:28.913Z,16.96
2019-04-05T15:22:58.505Z,16.97
2019-04-05T15:25:28.147Z,16.97
2019-04-05T15:27:57.778Z,17.00
2019-04-05T15:30:27.357Z,17.35
2019-04-05T15:32:58.591Z,17.18
2019-04-05T15:35:28.741Z,17.40
2019-04-05T15:38:01.422Z,17.12
2019-04-05T15:40:30.890Z,17.21
2019-04-05T15:43:01.327Z,17.37
2019-04-05T15:45:30.925Z,17.75
2019-04-05T15:48:00.611Z,17.69
2019-04-05T15:50:30.240Z,17.94
2019-04-05T15:53:02.326Z,17.44
2019-04-05T15:55:33.301Z,17.74
2019-04-05T15:58:03.907Z,17.80
2019-04-05T16:00:44.495Z,17.82
2019-04-05T16:03:14.660Z,17.79
2019-04-05T16:05:45.242Z,17.77
2019-04-05T16:08:18.249Z,17.86
2019-04-05T16:10:48.092Z,18.08
2019-04-05T16:13:17.673Z,18.15
2019-04-05T16:15:47.272Z,18.05
2019-04-05T16:18:16.845Z,17.41
2019-04-05T16:20:46.499Z,16.97
2019-04-05T16:23:16.174Z,16.73
2019-04-05T16:25:45.797Z,16.90
2019-04-05T16:28:15.381Z,16.75
2019-04-05T16:30:44.977Z,16.90
2019-04-05T16:33:14.617Z,16.87
2019-04-05T16:35:44.181Z,16.86
2019-04-05T16:38:13.798Z,17.02
2019-04-05T16:40:43.416Z,16.42
2019-04-05T16:43:13.025Z,16.30
2019-04-05T16:45:42.659Z,16.35
2019-04-05T16:48:12.269Z,16.37
2019-04-05T16:50:42.457Z,16.43
2019-04-05T16:53:12.181Z,16.53
2019-04-05T16:55:41.896Z,16.59
2019-04-05T16:58:11.534Z,16.56
2019-04-05T17:00:41.114Z,16.54
2019-04-05T17:03:10.673Z,16.43
2019-04-05T17:05:40.284Z,16.17
2019-04-05T17:08:09.887Z,16.19
2019-04-05T17:10:39.822Z,16.01
2019-04-05T17:13:09.497Z,16.05
2019-04-05T17:15:39.112Z,15.99
2019-04-05T17:18:08.720Z,16.02
2019-04-05T17:20:38.313Z,16.02
2019-04-05T17:23:07.936Z,15.84
2019-04-05T17:25:37.548Z,15.63
2019-04-05T17:28:07.152Z,15.51
2019-04-05T17:30:36.816Z,15.75
2019-04-05T17:33:06.527Z,15.47
2019-04-05T17:35:36.182Z,15.11
2019-04-05T17:38:05.909Z,15.09
2019-04-05T17:40:36.448Z,14.93
2019-04-05T17:43:06.056Z,14.66
2019-04-05T17:45:35.674Z,14.65
2019-04-05T17:48:05.446Z,14.33
2019-04-05T17:50:35.678Z,14.30
2019-04-05T17:53:12.746Z,14.12
2019-04-05T17:55:37.049Z,14.12
2019-04-05T17:58:07.277Z,14.09
2019-04-05T18:00:36.990Z,14.09
2019-04-05T18:03:06.649Z,14.13
2019-04-05T18:05:36.269Z,14.10
2019-04-05T18:08:05.914Z,14.22
2019-04-05T18:10:35.549Z,14.64
2019-04-05T18:13:05.207Z,14.46
2019-04-05T18:15:34.830Z,14.44
2019-04-05T18:18:04.450Z,14.59
2019-04-05T18:20:34.085Z,14.62
2019-04-05T18:23:03.721Z,14.89
2019-04-05T18:25:33.340Z,14.86
2019-04-05T18:28:02.986Z,14.85
2019-04-05T18:30:32.567Z,14.75
2019-04-05T18:33:02.187Z,14.81
2019-04-05T18:35:31.906Z,14.26
2019-04-05T18:38:01.479Z,14.82
2019-04-05T18:40:39.898Z,14.86
2019-04-05T18:43:02.485Z,15.14
2019-04-05T18:45:33.626Z,14.64
2019-04-05T18:48:03.358Z,14.55
2019-04-05T18:50:33.014Z,14.66
2019-04-05T18:53:03.650Z,14.85
2019-04-05T18:55:33.283Z,14.81
2019-04-05T18:58:02.879Z,14.65
2019-04-05T19:00:32.523Z,14.66
2019-04-05T19:03:02.116Z,14.81
2019-04-05T19:05:31.706Z,14.62
2019-04-05T19:08:01.429Z,14.58
2019-04-05T19:10:36.920Z,14.42
2019-04-05T19:13:02.374Z,14.16
2019-04-05T19:15:31.987Z,14.12
2019-04-05T19:18:01.679Z,13.98
2019-04-05T19:20:31.363Z,13.64
2019-04-05T19:23:00.953Z,13.50
2019-04-05T19:25:30.638Z,13.15
2019-04-05T19:28:00.231Z,13.02
2019-04-05T19:50:40.697Z,11.64
2019-04-05T19:53:10.387Z,11.40
2019-04-05T19:55:39.996Z,11.37
2019-04-05T19:58:09.571Z,11.17
2019-04-05T20:00:39.192Z,11.13
2019-04-05T20:03:08.784Z,10.95
2019-04-05T20:05:38.465Z,10.94
2019-04-05T20:08:08.088Z,10.90
2019-04-05T20:10:37.740Z,11.04
2019-04-05T20:13:07.475Z,10.79
2019-04-05T20:15:37.101Z,10.73
2019-04-05T20:18:06.770Z,10.69
2019-04-05T20:20:36.401Z,10.61
2019-04-05T20:23:06.029Z,10.78
2019-04-05T20:25:35.642Z,10.83
2019-04-05T20:28:05.266Z,10.77
2019-04-05T20:30:34.942Z,10.97
2019-04-05T20:33:04.690Z,10.66
2019-04-05T20:35:34.271Z,10.92
2019-04-05T20:38:03.901Z,11.35
2019-04-05T20:40:33.519Z,11.05
2019-04-05T20:43:03.167Z,12.23
2019-04-05T20:45:32.797Z,11.20
2019-04-05T20:48:02.436Z,11.64
2019-04-05T20:50:32.120Z,12.23
2019-04-05T20:53:02.135Z,12.93
2019-04-05T20:55:31.730Z,12.75
2019-04-05T20:58:01.387Z,12.69
2019-04-05T21:00:30.990Z,11.96
2019-04-05T21:03:00.613Z,11.29
2019-04-05T21:05:30.525Z,10.68
2019-04-05T21:08:00.158Z,11.01
2019-04-05T21:10:29.765Z,10.58
2019-04-05T21:12:59.350Z,10.49
2019-04-05T21:15:29.004Z,11.04
2019-04-05T21:17:58.616Z,10.97
2019-04-05T21:20:28.269Z,11.38
2019-04-05T21:22:57.861Z,11.03
2019-04-05T21:25:27.484Z,10.36
2019-04-05T21:27:57.206Z,10.07
2019-04-05T21:30:26.831Z,10.40
2019-04-05T21:32:56.406Z,10.58
2019-04-05T21:35:26.076Z,10.77
2019-04-05T21:37:55.696Z,10.61
2019-04-05T21:40:25.326Z,9.75
2019-04-05T21:42:54.950Z,9.85
2019-04-05T21:45:24.594Z,10.83
2019-04-05T21:47:54.224Z,9.97
2019-04-05T21:50:23.851Z,9.99
2019-04-05T21:52:53.576Z,9.81
2019-04-05T21:55:23.216Z,10.11
2019-04-05T21:57:52.847Z,9.69
2019-04-05T22:00:26.980Z,9.15
2019-04-05T22:02:56.631Z,8.98
2019-04-05T22:05:26.234Z,8.86
2019-04-05T22:07:55.867Z,8.69
2019-04-05T22:10:25.454Z,8.71
2019-04-05T22:12:55.067Z,8.82
2019-04-05T22:15:24.665Z,9.00
2019-04-05T22:17:54.255Z,8.63
2019-04-05T22:20:23.882Z,8.56
2019-04-05T22:22:53.491Z,8.67
2019-04-05T22:25:23.165Z,8.62
2019-04-05T22:27:52.748Z,8.77
2019-04-05T22:30:22.343Z,8.40
2019-04-05T22:32:51.970Z,8.46
2019-04-05T22:35:21.577Z,8.40
2019-04-05T22:37:51.155Z,8.30
2019-04-05T22:40:20.746Z,8.30
2019-04-05T22:42:50.345Z,8.26
2019-04-05T22:45:19.984Z,8.27
2019-04-05T22:47:49.601Z,8.30
2019-04-05T22:50:19.720Z,8.29
2019-04-05T22:52:49.312Z,8.23
2019-04-05T22:55:18.922Z,8.20
2019-04-05T22:57:48.572Z,8.20
2019-04-05T23:00:18.425Z,8.23
2019-04-05T23:02:48.011Z,8.21
2019-04-05T23:05:17.656Z,8.12
2019-04-05T23:07:47.273Z,8.05
2019-04-05T23:10:17.015Z,8.01
2019-04-05T23:12:46.662Z,8.04
2019-04-05T23:15:16.353Z,7.95
2019-04-05T23:17:45.946Z,7.96
2019-04-05T23:20:15.759Z,8.00
2019-04-05T23:22:45.403Z,7.94
2019-04-05T23:25:21.789Z,7.96
2019-04-05T23:27:46.355Z,7.85
2019-04-05T23:30:17.332Z,7.90
2019-04-05T23:32:46.939Z,7.78
2019-04-05T23:35:16.561Z,7.74
2019-04-05T23:37:46.154Z,7.77
2019-04-05T23:40:15.848Z,7.73
2019-04-05T23:42:45.440Z,7.56
2019-04-05T23:45:15.537Z,7.54
2019-04-05T23:47:45.148Z,7.49
2019-04-05T23:50:14.961Z,7.52
2019-04-05T23:52:44.528Z,7.54
2019-04-05T23:55:14.125Z,7.45
2019-04-05T23:57:43.711Z,7.60
